createdAt,value
2019-05-14T00:00:52.196Z,100.00
2019-05-14T00:03:22.088Z,100.00
2019-05-14T00:05:51.884Z,100.00
2019-05-14T00:08:22.189Z,100.00
2019-05-14T00:10:52.207Z,100.00
2019-05-14T00:13:21.760Z,100.00
2019-05-14T00:15:52.195Z,100.00
2019-05-14T00:18:22.450Z,100.00
2019-05-14T00:20:52.124Z,100.00
2019-05-14T00:23:21.712Z,100.00
2019-05-14T00:25:52.265Z,100.00
2019-05-14T00:28:21.944Z,100.00
2019-05-14T00:30:52.460Z,100.00
2019-05-14T00:33:22.644Z,100.00
2019-05-14T00:35:52.174Z,100.00
2019-05-14T00:38:22.543Z,100.00
2019-05-14T00:40:52.053Z,100.00
2019-05-14T00:43:21.789Z,100.00
2019-05-14T00:45:51.402Z,100.00
2019-05-14T00:48:22.201Z,100.00
2019-05-14T00:50:51.880Z,100.00
2019-05-14T00:53:21.544Z,100.00
2019-05-14T00:55:51.655Z,100.00
2019-05-14T00:58:21.896Z,100.00
2019-05-14T01:00:52.595Z,100.00
2019-05-14T01:03:22.306Z,100.00
2019-05-14T01:05:52.396Z,100.00
2019-05-14T01:08:22.065Z,100.00
2019-05-14T01:10:51.484Z,100.00
2019-05-14T01:13:21.900Z,100.00
2019-05-14T01:15:52.300Z,100.00
2019-05-14T01:18:22.129Z,100.00
2019-05-14T01:20:52.110Z,100.00
2019-05-14T01:23:21.795Z,100.00
2019-05-14T01:25:51.818Z,100.00
2019-05-14T01:28:21.746Z,100.00
2019-05-14T01:30:51.996Z,100.00
2019-05-14T01:33:21.594Z,100.00
2019-05-14T01:35:51.530Z,100.00
2019-05-14T01:38:22.098Z,100.00
2019-05-14T01:40:52.617Z,100.00
2019-05-14T01:43:22.239Z,100.00
2019-05-14T01:45:52.366Z,100.00
2019-05-14T01:48:22.131Z,100.00
2019-05-14T01:50:52.205Z,100.00
2019-05-14T01:53:22.133Z,100.00
2019-05-14T01:55:52.177Z,100.00
2019-05-14T01:58:22.216Z,100.00
2019-05-14T02:00:52.265Z,100.00
2019-05-14T02:03:22.010Z,100.00
2019-05-14T02:05:52.065Z,100.00
2019-05-14T02:08:21.754Z,100.00
2019-05-14T02:10:52.665Z,100.00
2019-05-14T02:13:22.293Z,100.00
2019-05-14T02:15:52.180Z,100.00
2019-05-14T02:18:21.899Z,100.00
2019-05-14T02:20:52.114Z,100.00
2019-05-14T02:23:22.623Z,100.00
2019-05-14T02:25:52.399Z,100.00
2019-05-14T02:28:22.264Z,100.00
2019-05-14T02:30:57.935Z,100.00
2019-05-14T02:33:22.921Z,100.00
2019-05-14T02:35:52.364Z,100.00
2019-05-14T02:38:21.793Z,100.00
2019-05-14T02:40:51.201Z,100.00
2019-05-14T02:43:20.631Z,100.00
2019-05-14T02:46:02.092Z,100.00
2019-05-14T02:48:21.250Z,100.00
2019-05-14T02:50:50.665Z,100.00
2019-05-14T02:53:20.271Z,100.00
2019-05-14T02:55:50.070Z,100.00
2019-05-14T02:58:20.538Z,100.00
2019-05-14T03:00:50.625Z,100.00
2019-05-14T03:03:20.194Z,100.00
2019-05-14T03:05:49.891Z,100.00
2019-05-14T03:08:20.125Z,100.00
2019-05-14T03:10:50.492Z,100.00
2019-05-14T03:13:20.608Z,100.00
2019-05-14T03:15:50.350Z,100.00
2019-05-14T03:18:20.106Z,100.00
2019-05-14T03:20:50.390Z,100.00
2019-05-14T03:23:23.096Z,100.00
2019-05-14T03:25:51.249Z,100.00
2019-05-14T03:28:20.666Z,100.00
2019-05-14T03:30:52.167Z,100.00
2019-05-14T03:33:22.330Z,100.00
2019-05-14T03:36:05.589Z,100.00
2019-05-14T03:38:23.174Z,100.00
2019-05-14T03:40:52.618Z,100.00
2019-05-14T03:43:22.224Z,100.00
2019-05-14T03:45:51.764Z,100.00
2019-05-14T03:48:21.193Z,100.00
2019-05-14T03:50:50.623Z,100.00
2019-05-14T03:53:20.256Z,100.00
2019-05-14T03:55:50.674Z,100.00
2019-05-14T03:58:21.491Z,100.00
2019-05-14T04:01:00.349Z,100.00
2019-05-14T04:03:30.427Z,100.00
2019-05-14T04:06:00.480Z,100.00
2019-05-14T04:08:30.579Z,100.00
2019-05-14T04:11:01.009Z,100.00
2019-05-14T04:13:30.948Z,100.00
2019-05-14T04:16:01.744Z,100.00
2019-05-14T04:18:31.507Z,100.00
2019-05-14T04:21:01.528Z,100.00
2019-05-14T04:23:31.001Z,100.00
2019-05-14T04:26:01.036Z,100.00
2019-05-14T04:28:30.836Z,100.00
2019-05-14T04:31:00.253Z,100.00
2019-05-14T04:33:30.615Z,100.00
2019-05-14T04:36:00.512Z,100.00
2019-05-14T04:38:30.315Z,100.00
2019-05-14T04:41:00.248Z,100.00
2019-05-14T04:43:29.781Z,100.00
2019-05-14T04:45:59.543Z,100.00
2019-05-14T04:48:37.198Z,100.00
2019-05-14T04:51:00.710Z,100.00
2019-05-14T04:53:31.085Z,100.00
2019-05-14T04:56:00.628Z,100.00
2019-05-14T04:58:30.237Z,100.00
2019-05-14T05:01:00.901Z,100.00
2019-05-14T05:03:31.655Z,100.00
2019-05-14T05:06:01.276Z,100.00
2019-05-14T05:08:30.991Z,100.00
2019-05-14T05:11:00.594Z,100.00
2019-05-14T05:13:30.025Z,100.00
2019-05-14T05:15:59.715Z,100.00
2019-05-14T05:18:29.839Z,100.00
2019-05-14T05:20:59.352Z,100.00
2019-05-14T05:23:28.809Z,100.00
2019-05-14T05:25:58.692Z,100.00
2019-05-14T05:28:28.566Z,100.00
2019-05-14T05:30:58.715Z,100.00
2019-05-14T05:33:29.337Z,100.00
2019-05-14T05:35:59.575Z,100.00
2019-05-14T05:38:29.537Z,100.00
2019-05-14T05:41:00.255Z,100.00
2019-05-14T05:43:29.908Z,100.00
2019-05-14T05:45:59.448Z,100.00
2019-05-14T05:48:28.859Z,100.00
2019-05-14T05:50:59.218Z,100.00
2019-05-14T05:53:29.006Z,100.00
2019-05-14T05:55:59.230Z,100.00
2019-05-14T05:58:30.142Z,100.00
2019-05-14T06:00:59.680Z,100.00
2019-05-14T06:03:30.384Z,100.00
2019-05-14T06:06:00.030Z,100.00
2019-05-14T06:08:29.472Z,100.00
2019-05-14T06:10:59.345Z,100.00
2019-05-14T06:13:28.957Z,100.00
2019-05-14T06:15:59.203Z,100.00
2019-05-14T06:18:28.869Z,100.00
2019-05-14T06:20:58.662Z,100.00
2019-05-14T06:23:28.692Z,100.00
2019-05-14T06:25:59.775Z,100.00
2019-05-14T06:28:33.355Z,100.00
2019-05-14T06:31:00.687Z,100.00
2019-05-14T06:33:30.111Z,100.00
2019-05-14T06:35:59.579Z,100.00
2019-05-14T06:38:29.554Z,100.00
2019-05-14T06:40:59.543Z,100.00
2019-05-14T06:43:29.105Z,100.00
2019-05-14T06:45:58.817Z,100.00
2019-05-14T06:48:34.374Z,100.00
2019-05-14T06:50:59.789Z,100.00
2019-05-14T06:53:29.397Z,100.00
2019-05-14T06:55:59.120Z,100.00
2019-05-14T06:58:29.784Z,100.00
2019-05-14T07:00:59.454Z,100.00
2019-05-14T07:03:28.931Z,100.00
2019-05-14T07:05:59.553Z,100.00
2019-05-14T07:08:29.244Z,100.00
2019-05-14T07:10:59.409Z,100.00
2019-05-14T07:13:29.426Z,100.00
2019-05-14T07:15:58.979Z,100.00
2019-05-14T07:18:33.296Z,100.00
2019-05-14T07:20:59.688Z,100.00
2019-05-14T07:23:29.309Z,100.00
2019-05-14T07:25:59.075Z,100.00
2019-05-14T07:28:29.059Z,100.00
2019-05-14T07:30:59.791Z,100.00
2019-05-14T07:33:29.629Z,100.00
2019-05-14T07:35:59.482Z,100.00
2019-05-14T07:38:29.100Z,100.00
2019-05-14T07:40:58.795Z,100.00
2019-05-14T07:43:28.869Z,100.00
2019-05-14T07:45:58.452Z,100.00
2019-05-14T07:48:28.841Z,100.00
2019-05-14T07:50:59.889Z,100.00
2019-05-14T07:53:38.695Z,100.00
2019-05-14T07:56:01.236Z,100.00
2019-05-14T07:58:30.780Z,100.00
2019-05-14T08:01:00.346Z,100.00
2019-05-14T08:03:29.987Z,100.00
2019-05-14T08:05:59.460Z,100.00
2019-05-14T08:08:29.379Z,100.00
2019-05-14T08:10:59.296Z,100.00
2019-05-14T08:13:28.840Z,100.00
2019-05-14T08:15:58.510Z,100.00
2019-05-14T08:18:29.004Z,100.00
2019-05-14T08:20:59.410Z,100.00
2019-05-14T08:23:28.961Z,100.00
2019-05-14T08:25:58.794Z,100.00
2019-05-14T08:28:29.030Z,100.00
2019-05-14T08:30:58.674Z,100.00
2019-05-14T08:33:29.089Z,100.00
2019-05-14T08:35:58.759Z,100.00
2019-05-14T08:38:28.579Z,100.00
2019-05-14T08:40:58.951Z,100.00
2019-05-14T08:43:29.325Z,100.00
2019-05-14T08:45:58.970Z,100.00
2019-05-14T08:48:29.564Z,100.00
2019-05-14T08:50:59.260Z,100.00
2019-05-14T08:53:29.093Z,100.00
2019-05-14T08:55:59.029Z,100.00
2019-05-14T08:58:30.036Z,100.00
2019-05-14T09:00:59.763Z,100.00
2019-05-14T09:03:29.175Z,100.00
2019-05-14T09:06:00.844Z,100.00
2019-05-14T09:08:29.769Z,100.00
2019-05-14T09:10:59.276Z,100.00
2019-05-14T09:13:29.067Z,100.00
2019-05-14T09:15:58.682Z,100.00
2019-05-14T09:18:29.136Z,100.00
2019-05-14T09:20:58.753Z,100.00
2019-05-14T09:23:28.750Z,100.00
2019-05-14T09:25:58.954Z,100.00
2019-05-14T09:28:28.720Z,100.00
2019-05-14T09:30:59.578Z,100.00
2019-05-14T09:33:29.808Z,100.00
2019-05-14T09:36:13.677Z,100.00
2019-05-14T09:38:30.591Z,100.00
2019-05-14T09:41:10.656Z,100.00
2019-05-14T09:43:31.179Z,100.00
2019-05-14T09:46:00.605Z,100.00
2019-05-14T09:48:30.025Z,100.00
2019-05-14T09:50:59.454Z,100.00
2019-05-14T09:53:29.023Z,100.00
2019-05-14T09:55:58.514Z,100.00
2019-05-14T09:58:28.363Z,100.00
2019-05-14T10:00:59.063Z,100.00
2019-05-14T10:03:28.834Z,100.00
2019-05-14T10:05:59.144Z,100.00
2019-05-14T10:08:28.709Z,100.00
2019-05-14T10:11:00.357Z,100.00
2019-05-14T10:13:29.265Z,100.00
2019-05-14T10:15:59.048Z,100.00
2019-05-14T10:18:28.637Z,100.00
2019-05-14T10:20:59.050Z,100.00
2019-05-14T10:23:28.666Z,100.00
2019-05-14T10:25:58.261Z,100.00
2019-05-14T10:28:28.865Z,100.00
2019-05-14T10:30:59.961Z,100.00
2019-05-14T10:33:29.786Z,100.00
2019-05-14T10:35:59.207Z,100.00
2019-05-14T10:38:29.559Z,100.00
2019-05-14T10:40:59.257Z,100.00
2019-05-14T10:43:29.047Z,100.00
2019-05-14T10:45:58.529Z,100.00
2019-05-14T10:48:29.151Z,100.00
2019-05-14T10:51:03.292Z,100.00
2019-05-14T10:53:29.867Z,100.00
2019-05-14T10:55:59.333Z,100.00
2019-05-14T10:58:29.197Z,100.00
2019-05-14T11:00:59.138Z,100.00
2019-05-14T11:03:30.132Z,100.00
2019-05-14T11:05:59.839Z,100.00
2019-05-14T11:08:29.804Z,100.00
2019-05-14T11:11:03.582Z,100.00
2019-05-14T11:13:30.587Z,100.00
2019-05-14T11:16:00.071Z,100.00
2019-05-14T11:18:29.556Z,100.00
2019-05-14T11:21:18.114Z,100.00
2019-05-14T11:23:30.201Z,100.00
2019-05-14T11:25:59.731Z,100.00
2019-05-14T11:28:29.187Z,100.00
2019-05-14T11:30:58.635Z,100.00
2019-05-14T11:33:29.667Z,100.00
2019-05-14T11:35:59.178Z,100.00
2019-05-14T11:38:36.899Z,100.00
2019-05-14T11:40:59.783Z,100.00
2019-05-14T11:43:29.257Z,100.00
2019-05-14T11:45:59.480Z,100.00
2019-05-14T11:48:29.406Z,100.00
2019-05-14T11:50:59.569Z,100.00
2019-05-14T11:53:29.197Z,100.00
2019-05-14T11:55:58.821Z,100.00
2019-05-14T11:58:29.471Z,100.00
2019-05-14T12:00:59.207Z,100.00
2019-05-14T12:03:28.755Z,100.00
2019-05-14T12:05:58.700Z,100.00
2019-05-14T12:08:28.890Z,100.00
2019-05-14T12:10:59.274Z,100.00
2019-05-14T12:13:32.652Z,100.00
2019-05-14T12:16:00.398Z,100.00
2019-05-14T12:18:29.889Z,100.00
2019-05-14T12:20:59.599Z,96.32
2019-05-14T12:23:29.792Z,93.17
2019-05-14T12:25:59.664Z,93.61
2019-05-14T12:28:29.398Z,90.90
2019-05-14T12:30:59.008Z,86.99
2019-05-14T12:33:30.675Z,84.22
2019-05-14T12:36:00.720Z,87.08
2019-05-14T12:38:30.214Z,84.87
2019-05-14T12:40:59.730Z,84.39
2019-05-14T12:43:29.227Z,82.39
2019-05-14T12:45:59.306Z,83.22
2019-05-14T12:48:29.920Z,83.82
2019-05-14T12:50:59.824Z,83.00
2019-05-14T12:53:29.436Z,81.50
2019-05-14T12:55:58.936Z,81.47
2019-05-14T12:58:28.690Z,81.18
2019-05-14T13:00:59.414Z,80.66
2019-05-14T13:03:29.248Z,81.14
2019-05-14T13:05:58.858Z,79.73
2019-05-14T13:08:28.546Z,78.41
2019-05-14T13:10:58.601Z,79.88
2019-05-14T13:13:29.111Z,78.74
2019-05-14T13:15:58.932Z,79.21
2019-05-14T13:18:29.095Z,78.48
2019-05-14T13:20:58.756Z,79.37
2019-05-14T13:23:29.182Z,79.76
2019-05-14T13:25:59.432Z,77.43
2019-05-14T13:28:29.340Z,75.59
2019-05-14T13:30:59.733Z,74.72
2019-05-14T13:33:29.597Z,74.67
2019-05-14T13:35:59.562Z,74.52
2019-05-14T13:38:29.222Z,72.29
2019-05-14T13:40:59.435Z,71.44
2019-05-14T13:43:30.521Z,71.64
2019-05-14T13:46:00.279Z,69.17
2019-05-14T13:48:30.054Z,70.94
2019-05-14T13:50:59.670Z,71.78
2019-05-14T13:53:29.741Z,71.63
2019-05-14T13:55:59.300Z,72.03
2019-05-14T13:58:28.850Z,71.14
2019-05-14T14:00:59.141Z,73.59
2019-05-14T14:03:29.451Z,73.95
2019-05-14T14:05:59.691Z,74.29
2019-05-14T14:08:29.533Z,76.55
2019-05-14T14:11:02.665Z,77.27
2019-05-14T14:13:31.357Z,75.91
2019-05-14T14:16:01.296Z,77.25
2019-05-14T14:18:30.831Z,77.39
2019-05-14T14:21:00.389Z,77.80
2019-05-14T14:23:31.171Z,78.20
2019-05-14T14:26:01.169Z,78.25
2019-05-14T14:28:30.706Z,78.35
2019-05-14T14:31:00.203Z,79.41
2019-05-14T14:33:29.677Z,79.24
2019-05-14T14:35:59.181Z,80.86
2019-05-14T14:38:29.529Z,80.10
2019-05-14T14:40:59.199Z,80.87
2019-05-14T14:43:29.466Z,80.86
2019-05-14T14:45:59.555Z,80.16
2019-05-14T14:48:30.316Z,80.91
2019-05-14T14:51:00.059Z,79.13
2019-05-14T14:53:43.164Z,80.36
2019-05-14T14:56:00.918Z,80.08
2019-05-14T14:58:30.444Z,78.65
2019-05-14T15:00:59.958Z,78.99
2019-05-14T15:03:29.741Z,80.08
2019-05-14T15:05:59.114Z,79.37
2019-05-14T15:08:29.493Z,80.86
2019-05-14T15:10:59.515Z,80.50
2019-05-14T15:13:29.234Z,81.40
2019-05-14T15:16:01.056Z,80.78
2019-05-14T15:18:30.092Z,80.24
2019-05-14T15:20:59.582Z,81.02
2019-05-14T15:23:29.066Z,80.91
2019-05-14T15:25:59.048Z,82.47
2019-05-14T15:28:28.726Z,81.32
2019-05-14T15:30:59.559Z,83.35
2019-05-14T15:33:29.494Z,81.18
2019-05-14T15:35:59.109Z,81.19
2019-05-14T15:38:30.687Z,81.39
2019-05-14T15:40:59.819Z,82.51
2019-05-14T15:43:29.393Z,83.90
2019-05-14T15:45:59.073Z,84.47
2019-05-14T15:48:28.722Z,85.88
2019-05-14T15:50:59.903Z,86.11
2019-05-14T15:53:29.722Z,86.13
2019-05-14T15:55:59.209Z,86.57
2019-05-14T15:58:30.293Z,86.87
2019-05-14T16:01:01.251Z,88.46
2019-05-14T16:03:30.923Z,88.01
2019-05-14T16:06:00.560Z,89.10
2019-05-14T16:08:30.112Z,89.16
2019-05-14T16:11:05.186Z,89.28
2019-05-14T16:13:32.235Z,89.39
2019-05-14T16:16:01.704Z,89.27
2019-05-14T16:18:31.230Z,90.02
2019-05-14T16:21:00.664Z,89.99
2019-05-14T16:23:30.089Z,89.79
2019-05-14T16:25:59.519Z,89.96
2019-05-14T16:28:28.968Z,90.59
2019-05-14T16:30:59.135Z,90.93
2019-05-14T16:33:29.509Z,92.23
2019-05-14T16:35:59.272Z,91.79
2019-05-14T16:38:28.774Z,92.59
2019-05-14T16:40:59.623Z,92.93
2019-05-14T16:43:32.153Z,92.72
2019-05-14T16:46:00.490Z,92.22
2019-05-14T16:48:30.578Z,92.95
2019-05-14T16:51:00.105Z,93.72
2019-05-14T16:53:29.610Z,93.59
2019-05-14T16:55:59.217Z,93.81
2019-05-14T16:58:29.319Z,94.74
2019-05-14T17:00:58.994Z,95.15
2019-05-14T17:03:29.769Z,95.46
2019-05-14T17:05:59.556Z,95.87
2019-05-14T17:08:29.013Z,96.40
2019-05-14T17:10:59.118Z,96.89
2019-05-14T17:13:28.728Z,98.00
2019-05-14T17:15:58.971Z,98.60
2019-05-14T17:18:28.804Z,98.71
2019-05-14T17:20:59.450Z,99.01
2019-05-14T17:23:29.075Z,99.16
2019-05-14T17:25:58.512Z,99.64
2019-05-14T17:28:28.598Z,99.61
2019-05-14T17:30:58.437Z,99.94
2019-05-14T17:33:29.195Z,98.94
2019-05-14T17:35:59.021Z,99.24
2019-05-14T17:38:29.245Z,98.68
2019-05-14T17:40:59.700Z,99.14
2019-05-14T17:43:29.403Z,99.21
2019-05-14T17:45:58.942Z,98.89
2019-05-14T17:48:28.640Z,98.56
2019-05-14T17:50:59.063Z,98.49
2019-05-14T17:53:29.115Z,99.50
2019-05-14T17:55:59.340Z,99.99
2019-05-14T17:58:29.015Z,100.00
2019-05-14T18:00:58.451Z,100.00
2019-05-14T18:03:29.060Z,100.00
2019-05-14T18:05:58.687Z,100.00
2019-05-14T18:08:30.037Z,100.00
2019-05-14T18:11:01.804Z,100.00
2019-05-14T18:13:30.960Z,100.00
2019-05-14T18:16:00.373Z,100.00
2019-05-14T18:18:29.848Z,100.00
2019-05-14T18:20:59.285Z,100.00
2019-05-14T18:23:29.061Z,100.00
2019-05-14T18:26:07.894Z,100.00
2019-05-14T18:28:30.254Z,100.00
2019-05-14T18:30:59.857Z,100.00
2019-05-14T18:33:31.151Z,100.00
2019-05-14T18:36:00.480Z,100.00
2019-05-14T18:38:30.053Z,100.00
2019-05-14T18:40:59.517Z,100.00
2019-05-14T18:43:29.124Z,100.00
2019-05-14T18:45:58.804Z,100.00
2019-05-14T18:48:28.923Z,100.00
2019-05-14T18:50:59.430Z,100.00
2019-05-14T18:53:28.912Z,100.00
2019-05-14T18:55:59.646Z,100.00
2019-05-14T18:58:29.565Z,100.00
2019-05-14T19:00:59.186Z,100.00
2019-05-14T19:03:28.830Z,100.00
2019-05-14T19:05:58.817Z,100.00
2019-05-14T19:08:28.977Z,100.00
2019-05-14T19:10:59.405Z,100.00
2019-05-14T19:13:29.054Z,100.00
2019-05-14T19:15:59.177Z,100.00
2019-05-14T19:18:28.894Z,100.00
2019-05-14T19:20:59.184Z,100.00
2019-05-14T19:23:29.139Z,100.00
2019-05-14T19:25:59.235Z,100.00
2019-05-14T19:28:28.915Z,100.00
2019-05-14T19:30:59.573Z,100.00
2019-05-14T19:33:29.232Z,100.00
2019-05-14T19:35:58.672Z,100.00
2019-05-14T19:38:28.117Z,100.00
2019-05-14T19:40:57.548Z,100.00
2019-05-14T19:43:28.990Z,100.00
2019-05-14T19:45:59.006Z,100.00
2019-05-14T19:48:32.693Z,100.00
2019-05-14T19:50:59.708Z,100.00
2019-05-14T19:53:29.127Z,100.00
2019-05-14T19:55:59.349Z,100.00
2019-05-14T19:58:29.389Z,100.00
2019-05-14T20:00:59.089Z,100.00
2019-05-14T20:03:29.180Z,100.00
2019-05-14T20:05:58.725Z,100.00
2019-05-14T20:08:29.536Z,100.00
2019-05-14T20:10:59.399Z,100.00
2019-05-14T20:13:28.843Z,100.00
2019-05-14T20:15:59.058Z,100.00
2019-05-14T20:18:29.280Z,100.00
2019-05-14T20:20:59.224Z,100.00
2019-05-14T20:23:29.235Z,100.00
2019-05-14T20:25:59.056Z,100.00
2019-05-14T20:28:28.541Z,100.00
2019-05-14T20:30:58.635Z,100.00
2019-05-14T20:33:28.290Z,100.00
2019-05-14T20:35:58.960Z,100.00
2019-05-14T20:38:28.604Z,100.00
2019-05-14T20:40:58.233Z,100.00
2019-05-14T20:43:29.044Z,100.00
2019-05-14T20:45:59.453Z,100.00
2019-05-14T20:48:29.000Z,100.00
2019-05-14T20:50:58.599Z,100.00
2019-05-14T20:53:29.111Z,100.00
2019-05-14T20:55:58.929Z,100.00
2019-05-14T20:58:28.352Z,100.00
2019-05-14T21:00:57.760Z,100.00
2019-05-14T21:03:29.033Z,100.00
2019-05-14T21:05:58.494Z,100.00
2019-05-14T21:08:28.335Z,100.00
2019-05-14T21:10:58.771Z,100.00
2019-05-14T21:13:28.306Z,100.00
2019-05-14T21:15:57.712Z,100.00
2019-05-14T21:18:34.678Z,100.00
2019-05-14T21:20:58.344Z,100.00
2019-05-14T21:23:29.875Z,100.00
2019-05-14T21:25:58.923Z,100.00
2019-05-14T21:28:30.092Z,100.00
2019-05-14T21:30:59.568Z,100.00
2019-05-14T21:33:30.301Z,100.00
2019-05-14T21:35:59.869Z,100.00
2019-05-14T21:38:29.292Z,100.00
2019-05-14T21:40:58.738Z,100.00
2019-05-14T21:43:29.085Z,100.00
2019-05-14T21:45:58.770Z,100.00
2019-05-14T21:48:28.885Z,100.00
2019-05-14T21:50:58.910Z,100.00
2019-05-14T21:53:29.642Z,100.00
2019-05-14T21:55:59.091Z,100.00
2019-05-14T21:58:29.246Z,100.00
2019-05-14T22:00:59.332Z,100.00
2019-05-14T22:03:28.723Z,100.00
2019-05-14T22:05:59.358Z,100.00
2019-05-14T22:08:30.368Z,100.00
2019-05-14T22:10:59.884Z,100.00
2019-05-14T22:13:29.295Z,100.00
2019-05-14T22:15:58.980Z,100.00
2019-05-14T22:18:28.430Z,100.00
2019-05-14T22:20:58.090Z,100.00
2019-05-14T22:23:29.200Z,100.00
2019-05-14T22:25:58.744Z,100.00
2019-05-14T22:28:28.803Z,100.00
2019-05-14T22:30:58.783Z,100.00
2019-05-14T22:33:28.508Z,100.00
2019-05-14T22:35:58.205Z,100.00
2019-05-14T22:38:29.335Z,100.00
2019-05-14T22:40:59.306Z,100.00
2019-05-14T22:43:28.916Z,100.00
2019-05-14T22:45:59.069Z,100.00
2019-05-14T22:48:28.625Z,100.00
2019-05-14T22:50:59.249Z,100.00
2019-05-14T22:53:30.469Z,100.00
2019-05-14T22:55:59.961Z,100.00
2019-05-14T22:58:29.394Z,100.00
2019-05-14T23:01:13.172Z,100.00
2019-05-14T23:03:30.108Z,100.00
2019-05-14T23:05:59.532Z,100.00
2019-05-14T23:08:28.955Z,100.00
2019-05-14T23:10:58.913Z,100.00
2019-05-14T23:13:28.471Z,100.00
2019-05-14T23:15:58.845Z,100.00
2019-05-14T23:18:28.804Z,100.00
2019-05-14T23:20:59.076Z,100.00
2019-05-14T23:23:28.722Z,100.00
2019-05-14T23:25:58.944Z,100.00
2019-05-14T23:28:41.866Z,100.00
2019-05-14T23:30:59.606Z,100.00
2019-05-14T23:33:29.056Z,100.00
2019-05-14T23:35:58.485Z,100.00
2019-05-14T23:38:28.984Z,100.00
2019-05-14T23:40:58.878Z,100.00
2019-05-14T23:43:28.872Z,100.00
2019-05-14T23:45:58.473Z,100.00
2019-05-14T23:48:27.832Z,100.00
2019-05-14T23:50:58.445Z,100.00
2019-05-14T23:53:29.133Z,100.00
2019-05-14T23:55:58.615Z,100.00
2019-05-14T23:58:28.976Z,100.00
